Time;durP1;ratioP1;P1;durP2;ratioP2;P2;SDS_P1;SDS_P2;PMS_P1;PMS_P2;Temp;Humidity;BMP_temperature;BMP_pressure;BME280_temperature;BME280_humidity;BME280_pressure;Samples;Min_cycle;Max_cycle;Signal;HPM_P1;HPM_P2
2023/11/04 00:02:22;;;;;;;;;;;6.10;86.30;;;;;;5093719;28;19928;-68
2023/11/04 00:04:55;;;;;;;;;;;6.00;86.10;;;;;;5094856;28;19934;-67
2023/11/04 00:07:43;;;;;;;;;;;6.00;86.30;;;;;;5096767;27;20232;-70
2023/11/04 00:10:23;;;;;;;;;;;6.10;86.10;;;;;;5093295;28;19981;-71
2023/11/04 00:12:58;;;;;;;;;;;6.10;86.20;;;;;;5100478;27;19923;-70
2023/11/04 00:15:32;;;;;;;;;;;6.00;86.30;;;;;;5102304;28;20406;-70
2023/11/04 00:18:05;;;;;;;;;;;6.00;86.30;;;;;;5102602;27;19924;-70
2023/11/04 00:20:38;;;;;;;;;;;6.10;86.30;;;;;;5094158;27;19935;-70
2023/11/04 00:23:11;;;;;;;;;;;6.00;86.60;;;;;;5085824;28;20014;-71
2023/11/04 00:25:44;;;;;;;;;;;6.10;86.60;;;;;;5091456;27;19939;-70
2023/11/04 00:28:20;;;;;;;;;;;6.10;87.00;;;;;;5090501;27;19935;-71
2023/11/04 00:30:53;;;;;;;;;;;6.00;87.10;;;;;;5102539;27;19925;-70
2023/11/04 00:33:26;;;;;;;;;;;6.10;87.50;;;;;;5102162;27;19932;-71
2023/11/04 00:36:01;;;;;;;;;;;6.10;87.50;;;;;;5095397;28;19924;-71
2023/11/04 00:38:34;;;;;;;;;;;6.20;87.70;;;;;;5089789;28;20402;-70
2023/11/04 00:41:07;;;;;;;;;;;6.20;87.80;;;;;;5100500;27;19938;-69
2023/11/04 00:43:41;;;;;;;;;;;6.20;87.80;;;;;;5097360;27;20018;-70
2023/11/04 00:46:15;;;;;;;;;;;6.20;87.90;;;;;;5092521;28;19931;-69
2023/11/04 00:48:48;;;;;;;;;;;6.30;87.90;;;;;;5102969;27;19924;-70
2023/11/04 00:51:21;;;;;;;;;;;6.40;88.00;;;;;;5098121;27;19927;-70
2023/11/04 00:53:54;;;;;;;;;;;6.30;87.80;;;;;;5110630;27;20018;-69
2023/11/04 00:56:27;;;;;;;;;;;6.40;88.10;;;;;;5095373;27;19925;-70
2023/11/04 00:59:01;;;;;;;;;;;6.40;88.00;;;;;;5094523;27;21166;-70
2023/11/04 01:01:35;;;;;;;;;;;6.40;88.10;;;;;;5099832;28;19959;-70
2023/11/04 01:04:08;;;;;;;;;;;6.50;88.10;;;;;;5089135;27;19924;-70
2023/11/04 01:06:41;;;;;;;;;;;6.60;88.20;;;;;;5094325;28;19939;-70
2023/11/04 01:09:14;;;;;;;;;;;6.60;87.90;;;;;;5092495;28;19935;-70
2023/11/04 01:11:47;;;;;;;;;;;6.70;87.70;;;;;;5100500;28;19924;-69
2023/11/04 01:14:21;;;;;;;;;;;6.70;87.80;;;;;;5101583;27;20405;-71
2023/11/04 01:16:55;;;;;;;;;;;6.70;87.40;;;;;;5077299;28;20026;-69
2023/11/04 01:19:28;;;;;;;;;;;6.80;87.80;;;;;;5089840;27;19942;-70
2023/11/04 01:22:07;;;;;;;;;;;6.80;88.00;;;;;;5089920;28;19935;-69
2023/11/04 01:24:41;;;;;;;;;;;6.90;87.90;;;;;;5090831;28;19931;-70
2023/11/04 01:27:14;;;;;;;;;;;7.00;87.80;;;;;;5108720;27;19932;-68
2023/11/04 01:29:49;;;;;;;;;;;7.00;87.40;;;;;;5105658;27;19927;-68
2023/11/04 01:32:23;;;;;;;;;;;7.10;87.30;;;;;;5092056;28;19924;-68
2023/11/04 01:34:56;;;;;;;;;;;7.10;87.30;;;;;;5093627;28;19930;-69
2023/11/04 01:37:29;;;;;;;;;;;7.20;87.30;;;;;;5098666;28;19935;-70
2023/11/04 01:40:07;;;;;;;;;;;7.20;87.20;;;;;;5083027;28;19932;-69
2023/11/04 01:42:46;;;;;;;;;;;7.20;86.90;;;;;;5096074;28;19928;-66
2023/11/04 01:45:21;;;;;;;;;;;7.20;87.10;;;;;;5093084;28;19928;-69
2023/11/04 01:47:55;;;;;;;;;;;7.30;86.80;;;;;;5085605;28;20037;-71
2023/11/04 01:50:29;;;;;;;;;;;7.30;86.60;;;;;;5087309;28;19924;-70
2023/11/04 01:53:02;;;;;;;;;;;7.30;86.40;;;;;;5097248;28;19931;-70
2023/11/04 01:55:36;;;;;;;;;;;7.30;86.60;;;;;;5092514;27;20014;-69
2023/11/04 01:58:10;;;;;;;;;;;7.40;86.40;;;;;;5089906;27;20434;-70
2023/11/04 02:00:44;;;;;;;;;;;7.40;86.30;;;;;;5085545;27;20375;-68
2023/11/04 02:03:18;;;;;;;;;;;7.40;86.30;;;;;;5084351;28;20020;-69
2023/11/04 02:05:51;;;;;;;;;;;7.50;86.10;;;;;;5083853;28;19985;-69
2023/11/04 02:08:24;;;;;;;;;;;7.50;86.00;;;;;;5107483;27;20007;-69
2023/11/04 02:10:57;;;;;;;;;;;7.50;86.00;;;;;;5097721;27;20379;-68
2023/11/04 02:13:37;;;;;;;;;;;7.40;85.90;;;;;;5095241;27;20313;-69
2023/11/04 02:16:11;;;;;;;;;;;7.50;85.70;;;;;;5093237;27;19928;-69
2023/11/04 02:18:45;;;;;;;;;;;7.60;85.70;;;;;;5093167;28;19937;-68
2023/11/04 02:21:20;;;;;;;;;;;7.50;85.70;;;;;;5095249;28;19928;-68
2023/11/04 02:23:54;;;;;;;;;;;7.60;85.60;;;;;;5106430;27;19932;-68
2023/11/04 02:26:27;;;;;;;;;;;7.50;85.60;;;;;;5094334;28;19981;-68
2023/11/04 02:29:01;;;;;;;;;;;7.60;85.50;;;;;;5090219;28;20031;-72
2023/11/04 02:31:34;;;;;;;;;;;7.60;85.40;;;;;;5095070;27;19981;-74
2023/11/04 02:34:08;;;;;;;;;;;7.60;85.40;;;;;;5092660;28;20016;-72
2023/11/04 02:36:42;;;;;;;;;;;7.60;85.30;;;;;;5100672;28;19928;-72
2023/11/04 02:39:16;;;;;;;;;;;7.70;85.20;;;;;;5088323;28;20500;-72
2023/11/04 02:41:49;;;;;;;;;;;7.70;85.10;;;;;;5109770;27;19924;-71
2023/11/04 02:44:22;;;;;;;;;;;7.70;85.10;;;;;;5110400;27;20414;-72
2023/11/04 02:46:55;;;;;;;;;;;7.70;85.20;;;;;;5099392;27;20367;-71
2023/11/04 02:49:28;;;;;;;;;;;7.70;85.10;;;;;;5092677;28;19924;-72
2023/11/04 02:52:02;;;;;;;;;;;7.70;85.10;;;;;;5090414;28;19931;-70
2023/11/04 02:54:36;;;;;;;;;;;7.70;85.00;;;;;;5088732;28;20428;-72
2023/11/04 02:57:11;;;;;;;;;;;7.70;85.00;;;;;;5096006;28;20023;-72
2023/11/04 02:59:45;;;;;;;;;;;7.70;85.00;;;;;;5096451;28;19932;-71
2023/11/04 03:02:18;;;;;;;;;;;7.70;84.80;;;;;;5094732;28;20002;-71
2023/11/04 03:04:53;;;;;;;;;;;7.70;84.80;;;;;;5090924;28;19939;-71
2023/11/04 03:07:28;;;;;;;;;;;7.80;84.70;;;;;;5094300;28;19979;-71
2023/11/04 03:10:02;;;;;;;;;;;7.70;84.60;;;;;;5091568;28;19924;-72
2023/11/04 03:12:35;;;;;;;;;;;7.70;84.50;;;;;;5091879;28;19931;-71
2023/11/04 03:15:08;;;;;;;;;;;7.80;84.50;;;;;;5066339;28;19955;-73
2023/11/04 03:17:42;;;;;;;;;;;7.80;84.40;;;;;;5091317;28;20393;-72
2023/11/04 03:20:15;;;;;;;;;;;7.90;84.40;;;;;;5071944;28;20321;-73
2023/11/04 03:22:49;;;;;;;;;;;7.80;84.50;;;;;;5089180;28;19924;-72
2023/11/04 03:25:23;;;;;;;;;;;7.90;84.40;;;;;;5081573;28;20478;-74
2023/11/04 03:27:56;;;;;;;;;;;7.90;84.40;;;;;;5095534;28;20361;-73
2023/11/04 03:30:31;;;;;;;;;;;7.90;84.40;;;;;;5098757;27;20524;-73
2023/11/04 03:33:04;;;;;;;;;;;7.90;84.40;;;;;;5087576;28;19924;-73
2023/11/04 03:35:44;;;;;;;;;;;7.90;84.40;;;;;;5095452;28;19932;-73
2023/11/04 03:38:18;;;;;;;;;;;7.90;84.30;;;;;;5069187;28;20523;-60
2023/11/04 03:40:52;;;;;;;;;;;7.90;84.30;;;;;;5091280;28;20473;-61
2023/11/04 03:43:25;;;;;;;;;;;7.90;84.20;;;;;;5092709;28;19935;-61
2023/11/04 03:45:58;;;;;;;;;;;7.90;84.30;;;;;;5095873;28;19932;-61
2023/11/04 03:48:25;;;;;;;;;;;7.90;84.20;;;;;;5092197;28;19924;-61
2023/11/04 03:50:58;;;;;;;;;;;8.00;84.20;;;;;;5085193;28;20302;-61
2023/11/04 03:53:33;;;;;;;;;;;8.00;84.20;;;;;;5091426;28;20015;-60
2023/11/04 03:56:06;;;;;;;;;;;7.90;84.20;;;;;;5086966;28;20290;-61
2023/11/04 03:58:40;;;;;;;;;;;8.00;84.30;;;;;;5086003;28;20458;-61
2023/11/04 04:01:13;;;;;;;;;;;8.00;84.30;;;;;;5090337;28;20418;-61
2023/11/04 04:03:46;;;;;;;;;;;8.00;84.30;;;;;;5079823;28;19928;-61
2023/11/04 04:06:20;;;;;;;;;;;8.00;84.20;;;;;;5094312;28;19928;-61
2023/11/04 04:08:55;;;;;;;;;;;8.00;84.20;;;;;;5083438;28;20409;-61
2023/11/04 04:11:29;;;;;;;;;;;8.10;84.40;;;;;;5098348;28;19986;-61
2023/11/04 04:14:02;;;;;;;;;;;8.00;84.40;;;;;;5092108;28;20262;-61
2023/11/04 04:16:35;;;;;;;;;;;8.00;84.50;;;;;;5089843;28;20379;-61
2023/11/04 04:19:08;;;;;;;;;;;8.00;84.60;;;;;;5088583;28;19932;-61
2023/11/04 04:21:37;;;;;;;;;;;8.00;84.50;;;;;;5097613;28;19928;-61
2023/11/04 04:24:11;;;;;;;;;;;8.00;84.60;;;;;;5092498;28;19927;-60
2023/11/04 04:26:45;;;;;;;;;;;8.00;84.50;;;;;;5094953;28;19927;-61
2023/11/04 04:29:18;;;;;;;;;;;8.10;84.40;;;;;;5090672;28;19924;-60
2023/11/04 04:31:51;;;;;;;;;;;8.10;84.40;;;;;;5095263;28;20341;-61
2023/11/04 04:34:25;;;;;;;;;;;8.00;84.40;;;;;;5101408;28;20395;-61
2023/11/04 04:36:58;;;;;;;;;;;8.10;84.40;;;;;;5098458;28;19924;-61
2023/11/04 04:39:32;;;;;;;;;;;8.10;84.30;;;;;;5102200;28;19927;-62
2023/11/04 04:42:06;;;;;;;;;;;8.10;84.30;;;;;;5098859;27;19933;-62
2023/11/04 04:44:39;;;;;;;;;;;8.10;84.30;;;;;;5100252;28;19959;-61
2023/11/04 04:47:12;;;;;;;;;;;8.10;84.20;;;;;;5096460;28;19928;-60
2023/11/04 04:49:45;;;;;;;;;;;8.10;84.20;;;;;;5081536;28;19933;-62
2023/11/04 04:52:18;;;;;;;;;;;8.10;84.10;;;;;;5102618;28;19924;-60
2023/11/04 04:54:52;;;;;;;;;;;8.10;84.20;;;;;;5103393;28;19924;-61
2023/11/04 04:57:26;;;;;;;;;;;8.10;84.20;;;;;;5103126;28;19935;-60
2023/11/04 05:00:00;;;;;;;;;;;8.10;84.20;;;;;;5102650;28;19924;-59
2023/11/04 05:02:33;;;;;;;;;;;8.10;84.10;;;;;;5102016;27;19930;-61
2023/11/04 05:05:06;;;;;;;;;;;8.10;84.00;;;;;;5100728;27;19928;-61
2023/11/04 05:07:40;;;;;;;;;;;8.20;83.90;;;;;;5103895;28;19951;-60
2023/11/04 05:10:09;;;;;;;;;;;8.10;83.80;;;;;;5100484;28;20026;-61
2023/11/04 05:12:46;;;;;;;;;;;8.10;83.70;;;;;;5101836;27;19924;-65
2023/11/04 05:15:20;;;;;;;;;;;8.10;83.70;;;;;;5103344;28;20014;-62
2023/11/04 05:17:54;;;;;;;;;;;8.10;83.70;;;;;;5102690;28;19970;-60
2023/11/04 05:20:27;;;;;;;;;;;8.10;83.50;;;;;;5101652;27;19936;-61
2023/11/04 05:23:00;;;;;;;;;;;8.20;83.50;;;;;;5102166;28;19928;-61
2023/11/04 05:25:31;;;;;;;;;;;8.10;83.30;;;;;;5100745;28;20424;-62
2023/11/04 05:28:07;;;;;;;;;;;8.10;83.20;;;;;;5104662;27;19931;-61
2023/11/04 05:30:40;;;;;;;;;;;8.20;83.20;;;;;;5104974;27;19969;-63
2023/11/04 05:33:13;;;;;;;;;;;8.20;83.20;;;;;;5095159;27;20052;-63
2023/11/04 05:35:46;;;;;;;;;;;8.20;83.20;;;;;;5113016;27;19924;-62
2023/11/04 05:38:19;;;;;;;;;;;8.20;83.10;;;;;;5101568;28;20014;-62
2023/11/04 05:41:20;;;;;;;;;;;8.20;83.20;;;;;;5072398;28;19939;-61
2023/11/04 05:44:04;;;;;;;;;;;8.20;83.10;;;;;;5092138;28;19981;-61
2023/11/04 05:46:38;;;;;;;;;;;8.20;83.00;;;;;;5097939;28;19972;-62
2023/11/04 05:49:37;;;;;;;;;;;8.20;83.00;;;;;;5100246;27;20053;-62
2023/11/04 05:52:10;;;;;;;;;;;8.20;82.90;;;;;;5103810;28;19969;-60
2023/11/04 05:54:37;;;;;;;;;;;8.20;82.90;;;;;;5098267;28;19930;-61
2023/11/04 05:57:38;;;;;;;;;;;8.20;82.90;;;;;;5065854;28;20286;-69
2023/11/04 06:00:12;;;;;;;;;;;8.20;82.90;;;;;;5101969;28;19927;-69
2023/11/04 06:02:46;;;;;;;;;;;8.20;82.90;;;;;;5086867;28;19924;-69
2023/11/04 06:05:19;;;;;;;;;;;8.20;83.00;;;;;;5098550;28;19931;-69
2023/11/04 06:07:52;;;;;;;;;;;8.20;83.00;;;;;;5100930;28;19954;-69
2023/11/04 06:10:19;;;;;;;;;;;8.20;83.10;;;;;;5102096;28;19930;-70
2023/11/04 06:12:54;;;;;;;;;;;8.20;83.10;;;;;;5094814;27;19924;-68
2023/11/04 06:15:27;;;;;;;;;;;8.30;83.10;;;;;;5100213;28;19934;-69
2023/11/04 06:18:00;;;;;;;;;;;8.30;83.00;;;;;;5102164;28;19923;-69
2023/11/04 06:20:34;;;;;;;;;;;8.30;83.00;;;;;;5100188;28;19958;-69
2023/11/04 06:23:07;;;;;;;;;;;8.30;83.10;;;;;;5094197;28;19927;-69
2023/11/04 06:25:40;;;;;;;;;;;8.30;83.10;;;;;;5099267;28;19923;-70
2023/11/04 06:28:20;;;;;;;;;;;8.30;83.10;;;;;;5099290;28;19924;-70
2023/11/04 06:30:53;;;;;;;;;;;8.30;83.00;;;;;;5093367;28;19963;-69
2023/11/04 06:33:26;;;;;;;;;;;8.40;83.00;;;;;;5097114;28;19924;-69
2023/11/04 06:35:59;;;;;;;;;;;8.40;83.00;;;;;;5102239;28;20329;-70
2023/11/04 06:38:32;;;;;;;;;;;8.40;83.00;;;;;;5102134;27;19928;-69
2023/11/04 06:40:59;;;;;;;;;;;8.30;83.30;;;;;;5095027;28;20045;-69
2023/11/04 06:43:33;;;;;;;;;;;8.40;83.20;;;;;;5100034;28;20358;-68
2023/11/04 06:46:08;;;;;;;;;;;8.40;83.10;;;;;;5095127;28;19969;-69
2023/11/04 06:48:42;;;;;;;;;;;8.40;83.10;;;;;;5093918;28;19932;-70
2023/11/04 06:51:18;;;;;;;;;;;8.40;83.10;;;;;;5097194;28;19931;-70
2023/11/04 06:53:51;;;;;;;;;;;8.40;83.10;;;;;;5094734;28;20306;-69
2023/11/04 06:56:25;;;;;;;;;;;8.50;83.10;;;;;;5093270;28;19934;-69
2023/11/04 06:58:59;;;;;;;;;;;8.40;83.00;;;;;;5094555;28;19924;-70
2023/11/04 07:01:33;;;;;;;;;;;8.50;83.10;;;;;;5099355;28;19928;-69
2023/11/04 07:04:06;;;;;;;;;;;8.50;83.10;;;;;;5089288;28;19949;-69
2023/11/04 07:06:40;;;;;;;;;;;8.50;83.10;;;;;;5107075;27;19928;-69
2023/11/04 07:09:17;;;;;;;;;;;8.60;83.10;;;;;;5094778;28;19923;-65
2023/11/04 07:11:51;;;;;;;;;;;8.60;83.10;;;;;;5098767;28;19984;-67
2023/11/04 07:14:25;;;;;;;;;;;8.60;83.10;;;;;;5093359;28;20389;-67
2023/11/04 07:16:59;;;;;;;;;;;8.70;83.10;;;;;;5097861;28;19931;-66
2023/11/04 07:19:33;;;;;;;;;;;8.70;83.10;;;;;;5093677;28;19935;-65
2023/11/04 07:22:06;;;;;;;;;;;8.70;83.00;;;;;;5097574;28;19939;-65
2023/11/04 07:24:40;;;;;;;;;;;8.70;82.90;;;;;;5109282;27;19924;-65
2023/11/04 07:27:13;;;;;;;;;;;8.80;83.00;;;;;;5094674;28;19928;-65
2023/11/04 07:29:47;;;;;;;;;;;8.80;83.00;;;;;;5098634;28;19928;-65
2023/11/04 07:32:21;;;;;;;;;;;8.90;83.00;;;;;;5092922;28;19927;-65
2023/11/04 07:34:54;;;;;;;;;;;8.90;83.00;;;;;;5089507;28;20011;-65
2023/11/04 07:37:28;;;;;;;;;;;9.00;82.80;;;;;;5098468;28;19924;-65
2023/11/04 07:40:04;;;;;;;;;;;9.00;82.60;;;;;;5090744;28;20018;-66
2023/11/04 07:42:44;;;;;;;;;;;9.00;82.50;;;;;;5098607;28;19934;-67
2023/11/04 07:45:18;;;;;;;;;;;9.00;82.60;;;;;;5095714;28;19928;-66
2023/11/04 07:47:52;;;;;;;;;;;9.00;82.60;;;;;;5092125;28;19938;-66
2023/11/04 07:50:25;;;;;;;;;;;9.00;82.50;;;;;;5096784;27;19939;-66
2023/11/04 07:52:58;;;;;;;;;;;9.00;82.40;;;;;;5085694;28;19928;-66
2023/11/04 07:55:31;;;;;;;;;;;9.00;82.40;;;;;;5083812;28;20031;-67
2023/11/04 07:58:11;;;;;;;;;;;9.10;82.20;;;;;;5093118;28;19935;-67
2023/11/04 08:00:45;;;;;;;;;;;9.10;82.10;;;;;;5095771;28;20011;-65
2023/11/04 08:03:18;;;;;;;;;;;9.10;82.10;;;;;;5093770;28;19952;-65
2023/11/04 08:05:58;;;;;;;;;;;9.10;82.10;;;;;;5093975;28;19924;-65
2023/11/04 08:08:32;;;;;;;;;;;9.10;82.00;;;;;;5094826;28;20356;-65
2023/11/04 08:11:05;;;;;;;;;;;9.10;81.90;;;;;;5098994;28;19927;-66
2023/11/04 08:13:51;;;;;;;;;;;9.10;81.90;;;;;;5101026;28;19969;-66
2023/11/04 08:16:26;;;;;;;;;;;9.10;81.90;;;;;;5098551;28;20046;-65
2023/11/04 08:19:00;;;;;;;;;;;9.10;81.70;;;;;;5099237;28;19936;-66
2023/11/04 08:21:33;;;;;;;;;;;9.20;81.40;;;;;;5097751;28;19924;-67
2023/11/04 08:24:06;;;;;;;;;;;9.20;81.30;;;;;;5097117;28;19924;-67
2023/11/04 08:26:39;;;;;;;;;;;9.30;81.10;;;;;;5097932;28;20371;-66
2023/11/04 08:29:13;;;;;;;;;;;9.50;80.80;;;;;;5097538;28;19943;-67
2023/11/04 08:31:49;;;;;;;;;;;9.60;80.70;;;;;;5101527;27;20102;-67
2023/11/04 08:34:22;;;;;;;;;;;9.60;80.50;;;;;;5102326;28;20022;-66
2023/11/04 08:36:49;;;;;;;;;;;9.60;80.30;;;;;;5102128;27;19955;-66
2023/11/04 08:39:24;;;;;;;;;;;9.70;80.00;;;;;;5116777;27;20752;-66
2023/11/04 08:41:58;;;;;;;;;;;9.70;79.90;;;;;;5095789;28;19923;-68
2023/11/04 08:44:31;;;;;;;;;;;9.70;79.90;;;;;;5101048;28;19971;-67
2023/11/04 08:47:05;;;;;;;;;;;9.80;79.60;;;;;;5097673;28;19928;-67
2023/11/04 08:49:39;;;;;;;;;;;9.80;79.20;;;;;;5096866;28;19931;-67
2023/11/04 08:52:12;;;;;;;;;;;9.80;79.00;;;;;;5097984;28;19939;-67
2023/11/04 08:54:45;;;;;;;;;;;9.80;78.90;;;;;;5097992;27;19932;-67
2023/11/04 08:57:18;;;;;;;;;;;9.80;78.70;;;;;;5102604;28;19930;-68
2023/11/04 08:59:51;;;;;;;;;;;9.80;78.70;;;;;;5097688;27;19924;-68
2023/11/04 09:02:25;;;;;;;;;;;9.80;78.90;;;;;;5092381;28;19959;-67
2023/11/04 09:05:00;;;;;;;;;;;9.90;78.90;;;;;;5100175;28;19969;-68
2023/11/04 09:07:34;;;;;;;;;;;9.90;78.50;;;;;;5096674;28;19924;-66
2023/11/04 09:10:07;;;;;;;;;;;9.90;78.30;;;;;;5099266;28;19934;-67
2023/11/04 09:12:41;;;;;;;;;;;9.90;78.10;;;;;;5094639;28;20028;-66
2023/11/04 09:15:21;;;;;;;;;;;9.90;78.00;;;;;;5098787;28;19932;-66
2023/11/04 09:17:55;;;;;;;;;;;9.90;77.90;;;;;;5099544;28;20367;-67
2023/11/04 09:20:30;;;;;;;;;;;9.90;77.60;;;;;;5103419;28;19979;-67
2023/11/04 09:23:03;;;;;;;;;;;9.90;77.50;;;;;;5099094;27;19967;-67
2023/11/04 09:25:36;;;;;;;;;;;9.90;77.30;;;;;;5094427;28;19927;-67
2023/11/04 09:28:09;;;;;;;;;;;9.90;77.50;;;;;;5098295;28;20353;-75
2023/11/04 09:30:43;;;;;;;;;;;9.90;77.50;;;;;;5077559;28;20328;-73
2023/11/04 09:33:17;;;;;;;;;;;10.00;77.60;;;;;;5099556;28;20421;-72
2023/11/04 09:35:58;;;;;;;;;;;10.00;77.30;;;;;;5094058;28;19924;-73
2023/11/04 09:38:32;;;;;;;;;;;10.00;77.00;;;;;;5094608;28;19931;-73
2023/11/04 09:41:05;;;;;;;;;;;10.10;76.80;;;;;;5097201;28;19927;-72
2023/11/04 09:43:39;;;;;;;;;;;10.10;76.60;;;;;;5097774;28;19939;-73
2023/11/04 09:46:12;;;;;;;;;;;10.20;76.40;;;;;;5098291;28;19923;-72
2023/11/04 09:48:47;;;;;;;;;;;10.20;76.10;;;;;;5097834;28;19924;-73
2023/11/04 09:51:22;;;;;;;;;;;10.20;75.80;;;;;;5098487;28;19958;-72
2023/11/04 09:53:58;;;;;;;;;;;10.30;76.00;;;;;;5097539;28;19974;-73
2023/11/04 09:56:31;;;;;;;;;;;10.40;75.80;;;;;;5089136;28;19936;-72
2023/11/04 09:59:05;;;;;;;;;;;10.60;75.50;;;;;;5098225;28;19939;-73
2023/11/04 10:01:40;;;;;;;;;;;10.70;75.40;;;;;;5096474;28;19932;-74
2023/11/04 10:04:14;;;;;;;;;;;10.90;75.00;;;;;;5093474;28;19939;-73
2023/11/04 10:06:48;;;;;;;;;;;11.00;75.10;;;;;;5094997;28;20056;-72
2023/11/04 10:09:23;;;;;;;;;;;11.00;74.80;;;;;;5095880;28;19923;-71
2023/11/04 10:11:56;;;;;;;;;;;11.00;74.40;;;;;;5099023;28;19931;-73
2023/11/04 10:14:29;;;;;;;;;;;11.00;74.20;;;;;;5098487;28;19928;-73
2023/11/04 10:17:02;;;;;;;;;;;11.20;74.00;;;;;;5092288;28;24921;-72
2023/11/04 10:19:37;;;;;;;;;;;11.30;73.80;;;;;;5099508;28;19934;-73
2023/11/04 10:22:12;;;;;;;;;;;11.40;73.80;;;;;;5093820;28;19925;-73
2023/11/04 10:24:45;;;;;;;;;;;11.50;73.30;;;;;;5087711;28;19925;-72
2023/11/04 10:27:18;;;;;;;;;;;11.60;73.30;;;;;;5095972;28;19951;-72
2023/11/04 10:29:53;;;;;;;;;;;11.60;73.30;;;;;;5094431;27;22211;-71
2023/11/04 10:32:30;;;;;;;;;;;11.60;73.20;;;;;;5101209;28;19963;-72
2023/11/04 10:35:09;;;;;;;;;;;11.60;73.20;;;;;;5098221;28;20018;-72
2023/11/04 10:37:45;;;;;;;;;;;11.60;73.30;;;;;;5101105;28;19923;-60
2023/11/04 10:40:20;;;;;;;;;;;11.70;72.90;;;;;;5096752;28;20020;-62
2023/11/04 10:42:58;;;;;;;;;;;11.70;72.90;;;;;;5095735;28;20002;-62
2023/11/04 10:45:33;;;;;;;;;;;11.80;72.50;;;;;;5092743;28;20397;-61
2023/11/04 10:48:10;;;;;;;;;;;11.90;72.30;;;;;;5099436;28;19923;-61
2023/11/04 10:50:45;;;;;;;;;;;12.00;72.20;;;;;;5088477;27;19933;-64
2023/11/04 10:53:38;;;;;;;;;;;11.90;72.20;;;;;;5082192;28;19923;-61
2023/11/04 10:56:16;;;;;;;;;;;12.00;72.30;;;;;;5091173;28;19935;-61
2023/11/04 10:58:54;;;;;;;;;;;12.10;71.90;;;;;;5096510;28;19930;-61
2023/11/04 11:01:28;;;;;;;;;;;12.10;71.40;;;;;;5097247;28;20363;-63
2023/11/04 11:04:02;;;;;;;;;;;12.20;70.90;;;;;;5095775;28;19928;-61
2023/11/04 11:06:36;;;;;;;;;;;12.20;70.70;;;;;;5091683;28;19928;-61
2023/11/04 11:09:10;;;;;;;;;;;12.20;70.40;;;;;;5092694;28;20492;-61
2023/11/04 11:11:46;;;;;;;;;;;12.20;70.10;;;;;;5095051;28;19936;-61
2023/11/04 11:14:19;;;;;;;;;;;12.20;70.10;;;;;;5092848;28;20060;-62
2023/11/04 11:16:58;;;;;;;;;;;12.20;70.00;;;;;;5095692;28;19935;-62
2023/11/04 11:19:33;;;;;;;;;;;12.20;70.30;;;;;;5094430;28;19934;-61
2023/11/04 11:22:07;;;;;;;;;;;12.30;69.70;;;;;;5096417;28;19935;-61
2023/11/04 11:24:47;;;;;;;;;;;12.30;69.90;;;;;;5097406;28;19971;-61
2023/11/04 11:27:20;;;;;;;;;;;12.30;70.10;;;;;;5095416;28;20744;-61
2023/11/04 11:29:56;;;;;;;;;;;12.30;69.80;;;;;;5095831;28;20010;-62
2023/11/04 11:32:33;;;;;;;;;;;12.30;69.80;;;;;;5093251;28;19936;-61
2023/11/04 11:35:07;;;;;;;;;;;12.20;69.90;;;;;;5094660;28;19931;-61
2023/11/04 11:37:42;;;;;;;;;;;12.20;70.00;;;;;;5097730;28;19931;-61
2023/11/04 11:40:15;;;;;;;;;;;12.20;70.20;;;;;;5090095;28;19928;-62
2023/11/04 11:42:48;;;;;;;;;;;12.20;70.40;;;;;;5095565;28;19931;-60
2023/11/04 11:45:21;;;;;;;;;;;12.20;70.70;;;;;;5099832;28;20008;-61
2023/11/04 11:47:48;;;;;;;;;;;12.20;70.80;;;;;;5095283;28;19932;-67
2023/11/04 11:50:21;;;;;;;;;;;12.20;70.40;;;;;;5094729;28;19925;-67
2023/11/04 11:52:49;;;;;;;;;;;12.20;70.10;;;;;;5092656;28;19950;-67
2023/11/04 11:55:22;;;;;;;;;;;12.20;70.30;;;;;;5088619;28;20327;-67
2023/11/04 11:57:56;;;;;;;;;;;12.20;70.50;;;;;;5094354;28;19971;-67
2023/11/04 12:00:47;;;;;;;;;;;12.20;70.70;;;;;;5086828;28;19924;-68
2023/11/04 12:03:21;;;;;;;;;;;12.20;71.10;;;;;;5096763;28;19931;-67
2023/11/04 12:05:54;;;;;;;;;;;12.20;71.20;;;;;;5095687;28;19924;-68
2023/11/04 12:08:22;;;;;;;;;;;12.20;71.10;;;;;;5093117;28;19928;-68
2023/11/04 12:10:55;;;;;;;;;;;12.20;71.10;;;;;;5096126;28;20384;-67
2023/11/04 12:13:28;;;;;;;;;;;12.20;71.40;;;;;;5094862;28;19932;-67
2023/11/04 12:16:02;;;;;;;;;;;12.20;71.40;;;;;;5095376;27;19947;-68
2023/11/04 12:18:35;;;;;;;;;;;12.20;71.30;;;;;;5082705;28;20132;-67
2023/11/04 12:21:10;;;;;;;;;;;12.20;71.60;;;;;;5091342;28;20278;-67
2023/11/04 12:23:46;;;;;;;;;;;12.20;71.70;;;;;;5097675;28;20276;-65
2023/11/04 12:26:28;;;;;;;;;;;12.00;71.70;;;;;;5095176;28;19927;-67
2023/11/04 12:29:02;;;;;;;;;;;12.00;71.70;;;;;;5095692;28;19956;-67
2023/11/04 12:31:36;;;;;;;;;;;11.90;71.70;;;;;;5094667;28;19924;-67
2023/11/04 12:34:10;;;;;;;;;;;11.90;71.90;;;;;;5096823;28;20324;-67
2023/11/04 12:36:43;;;;;;;;;;;11.90;71.70;;;;;;5099746;28;19924;-68
2023/11/04 12:39:17;;;;;;;;;;;11.90;71.80;;;;;;5100612;28;19935;-67
2023/11/04 12:41:51;;;;;;;;;;;11.90;71.80;;;;;;5094523;28;19933;-67
2023/11/04 12:44:24;;;;;;;;;;;11.90;72.00;;;;;;5093339;28;19942;-66
2023/11/04 12:46:58;;;;;;;;;;;12.00;72.10;;;;;;5092428;28;20415;-67
2023/11/04 12:49:33;;;;;;;;;;;12.00;72.20;;;;;;5092454;28;19977;-67
2023/11/04 12:52:07;;;;;;;;;;;12.10;72.30;;;;;;5092337;28;19928;-67
2023/11/04 12:54:48;;;;;;;;;;;12.10;72.50;;;;;;5100366;28;19928;-68
2023/11/04 12:57:22;;;;;;;;;;;12.20;72.60;;;;;;5099147;28;20016;-68
2023/11/04 12:59:48;;;;;;;;;;;12.10;72.50;;;;;;5094416;28;19928;-68
2023/11/04 13:02:22;;;;;;;;;;;12.00;72.30;;;;;;5096604;28;19928;-68
2023/11/04 13:04:57;;;;;;;;;;;11.90;73.00;;;;;;5096591;28;19924;-67
2023/11/04 13:07:30;;;;;;;;;;;11.90;72.90;;;;;;5094820;27;20458;-67
2023/11/04 13:10:05;;;;;;;;;;;11.90;72.70;;;;;;5095409;27;20019;-68
2023/11/04 13:12:38;;;;;;;;;;;11.90;72.70;;;;;;5096801;28;19932;-67
2023/11/04 13:15:12;;;;;;;;;;;11.90;72.80;;;;;;5094319;28;19931;-68
2023/11/04 13:17:39;;;;;;;;;;;11.90;72.90;;;;;;5100174;28;20443;-67
2023/11/04 13:20:12;;;;;;;;;;;11.80;73.00;;;;;;5097100;28;19973;-67
2023/11/04 13:22:45;;;;;;;;;;;11.80;73.00;;;;;;5100445;28;19942;-68
2023/11/04 13:25:20;;;;;;;;;;;11.80;73.00;;;;;;5098998;28;19928;-68
2023/11/04 13:27:53;;;;;;;;;;;11.70;73.10;;;;;;5096705;28;20022;-67
2023/11/04 13:30:26;;;;;;;;;;;11.70;73.40;;;;;;5095808;28;19932;-67
2023/11/04 13:32:59;;;;;;;;;;;11.70;73.20;;;;;;5095803;28;20388;-68
2023/11/04 13:35:32;;;;;;;;;;;11.70;73.40;;;;;;5097056;28;19928;-68
2023/11/04 13:38:05;;;;;;;;;;;11.70;73.20;;;;;;5094192;28;19930;-67
2023/11/04 13:40:39;;;;;;;;;;;11.70;73.30;;;;;;5091078;28;20317;-67
2023/11/04 13:43:13;;;;;;;;;;;11.70;73.40;;;;;;5092985;28;19932;-67
2023/11/04 13:45:46;;;;;;;;;;;11.70;73.30;;;;;;5096377;28;19923;-67
2023/11/04 13:48:19;;;;;;;;;;;11.70;73.40;;;;;;5099540;28;19928;-67
2023/11/04 13:50:52;;;;;;;;;;;11.70;73.10;;;;;;5094105;28;19928;-66
2023/11/04 13:53:25;;;;;;;;;;;11.80;73.00;;;;;;5099595;28;19960;-67
2023/11/04 13:56:00;;;;;;;;;;;11.70;72.80;;;;;;5086809;28;19973;-67
2023/11/04 13:58:34;;;;;;;;;;;11.70;72.50;;;;;;5097875;28;20290;-69
2023/11/04 14:01:07;;;;;;;;;;;11.70;72.80;;;;;;5097602;28;20298;-67
2023/11/04 14:03:40;;;;;;;;;;;11.70;72.90;;;;;;5097775;28;19924;-67
2023/11/04 14:06:13;;;;;;;;;;;11.70;73.30;;;;;;5097730;28;19924;-67
2023/11/04 14:08:40;;;;;;;;;;;11.60;73.80;;;;;;5099698;28;20299;-71
2023/11/04 14:11:14;;;;;;;;;;;11.60;74.10;;;;;;5096369;27;19967;-71
2023/11/04 14:13:55;;;;;;;;;;;11.60;74.50;;;;;;5094008;28;19939;-72
2023/11/04 14:16:28;;;;;;;;;;;11.60;75.10;;;;;;5094851;28;20830;-71
2023/11/04 14:19:01;;;;;;;;;;;11.50;75.60;;;;;;5094631;28;19930;-72
2023/11/04 14:21:34;;;;;;;;;;;11.40;76.00;;;;;;5095513;28;19931;-69
2023/11/04 14:24:14;;;;;;;;;;;11.30;76.20;;;;;;5089468;28;19935;-70
2023/11/04 14:26:49;;;;;;;;;;;11.20;76.40;;;;;;5096558;28;19928;-70
2023/11/04 14:29:23;;;;;;;;;;;11.20;76.90;;;;;;5099097;28;19978;-71
2023/11/04 14:31:57;;;;;;;;;;;11.10;77.30;;;;;;5096988;28;19923;-70
2023/11/04 14:34:30;;;;;;;;;;;11.10;77.80;;;;;;5101615;28;19924;-71
2023/11/04 14:37:03;;;;;;;;;;;11.00;78.30;;;;;;5100995;28;19924;-70
2023/11/04 14:39:36;;;;;;;;;;;11.00;79.10;;;;;;5099307;28;19924;-71
2023/11/04 14:42:13;;;;;;;;;;;10.90;80.10;;;;;;5089838;28;19944;-70
2023/11/04 14:44:47;;;;;;;;;;;10.80;80.20;;;;;;5098924;28;20295;-70
2023/11/04 14:47:20;;;;;;;;;;;10.80;80.60;;;;;;5098931;28;19967;-68
2023/11/04 14:49:53;;;;;;;;;;;10.80;80.30;;;;;;5098204;28;19924;-71
2023/11/04 14:52:26;;;;;;;;;;;10.70;80.50;;;;;;5100860;28;19931;-70
2023/11/04 14:54:59;;;;;;;;;;;10.70;80.90;;;;;;5100679;28;19924;-71
2023/11/04 14:57:34;;;;;;;;;;;10.70;80.80;;;;;;5098210;28;19938;-71
2023/11/04 15:00:09;;;;;;;;;;;10.60;80.60;;;;;;5100647;28;19934;-72
2023/11/04 15:02:42;;;;;;;;;;;10.50;80.90;;;;;;5100082;28;19931;-69
2023/11/04 15:05:16;;;;;;;;;;;10.50;81.10;;;;;;5096752;28;20016;-71
2023/11/04 15:07:50;;;;;;;;;;;10.40;81.50;;;;;;5100438;28;19981;-71